createdAt,value
2023-03-10T00:38:57.243Z,15.80
2023-03-10T00:41:52.328Z,11.50
2023-03-10T00:44:36.923Z,12.40
2023-03-10T00:47:17.649Z,18.30
2023-03-10T00:50:53.428Z,14.30
2023-03-10T00:54:03.143Z,15.90
2023-03-10T00:56:35.076Z,15.90
2023-03-10T00:59:14.232Z,14.10
2023-03-10T01:01:45.529Z,13.00
2023-03-10T01:07:02.866Z,19.20
2023-03-10T01:09:36.292Z,18.50
2023-03-10T01:12:13.108Z,17.00
2023-03-10T01:14:42.200Z,17.70
2023-03-10T01:17:11.987Z,15.00
2023-03-10T01:19:45.898Z,20.40
2023-03-10T01:22:15.813Z,16.00
2023-03-10T01:24:52.774Z,14.50
2023-03-10T01:27:24.580Z,13.30
2023-03-10T01:30:13.690Z,19.60
2023-03-10T01:32:44.179Z,17.90
2023-03-10T01:35:42.036Z,15.50
2023-03-10T01:38:16.539Z,14.10
2023-03-10T01:40:50.305Z,18.30
2023-03-10T01:43:51.874Z,17.40
2023-03-10T01:46:56.454Z,13.20
2023-03-10T01:49:54.278Z,18.50
2023-03-10T01:52:31.844Z,19.10
2023-03-10T01:55:49.675Z,19.20
2023-03-10T02:04:43.318Z,14.70
2023-03-10T02:10:29.351Z,16.80
2023-03-10T02:13:21.474Z,17.10
2023-03-10T02:15:52.751Z,20.30
2023-03-10T02:18:22.736Z,17.10
2023-03-10T02:21:05.616Z,17.60
2023-03-10T02:23:51.402Z,17.20
2023-03-10T02:26:42.626Z,16.30
2023-03-10T02:29:28.293Z,16.30
2023-03-10T02:34:27.016Z,14.50
2023-03-10T02:36:56.949Z,20.10
2023-03-10T02:39:25.960Z,21.50
2023-03-10T02:42:01.710Z,17.90
2023-03-10T02:44:41.482Z,15.70
2023-03-10T02:47:10.956Z,17.60
2023-03-10T02:49:52.838Z,18.10
2023-03-10T02:52:44.416Z,14.90
2023-03-10T02:55:18.963Z,16.50
2023-03-10T03:00:34.618Z,15.70
2023-03-10T03:03:21.576Z,18.10
2023-03-10T03:05:59.509Z,28.20
2023-03-10T03:08:31.301Z,28.10
2023-03-10T03:11:03.446Z,14.30
2023-03-10T03:16:36.390Z,17.30
2023-03-10T03:19:23.474Z,17.20
2023-03-10T03:22:10.460Z,14.10
2023-03-10T03:25:02.140Z,19.00
2023-03-10T03:27:32.542Z,13.80
2023-03-10T03:30:09.234Z,17.30
2023-03-10T03:32:38.678Z,18.70
2023-03-10T03:35:22.463Z,13.60
2023-03-10T03:37:53.083Z,22.30
2023-03-10T03:40:22.344Z,20.50
2023-03-10T03:42:52.879Z,29.10
2023-03-10T03:48:22.322Z,16.10
2023-03-10T03:50:51.592Z,12.40
2023-03-10T03:53:28.224Z,16.20
2023-03-10T03:55:57.478Z,20.90
2023-03-10T03:58:31.067Z,15.90
2023-03-10T04:00:59.650Z,14.30
2023-03-10T04:03:29.424Z,13.40
2023-03-10T04:05:58.865Z,24.60
2023-03-10T04:08:28.126Z,17.20
2023-03-10T04:11:03.724Z,18.20
2023-03-10T04:13:39.508Z,15.30
2023-03-10T04:16:08.641Z,14.20
2023-03-10T04:20:06.309Z,18.60
2023-03-10T04:22:42.083Z,20.20
2023-03-10T04:25:10.232Z,16.80
2023-03-10T04:27:37.340Z,16.00
2023-03-10T04:30:06.942Z,13.00
2023-03-10T04:32:36.472Z,17.20
2023-03-10T04:35:05.213Z,17.70
2023-03-10T04:37:33.114Z,13.80
2023-03-10T04:40:02.142Z,17.10
2023-03-10T04:42:30.086Z,20.10
2023-03-10T04:44:59.457Z,18.60
2023-03-10T04:47:27.263Z,26.10
2023-03-10T04:49:54.419Z,22.50
2023-03-10T04:52:21.936Z,17.60
2023-03-10T04:54:52.472Z,20.60
2023-03-10T04:57:21.354Z,14.20
2023-03-10T05:03:08.113Z,15.50
2023-03-10T05:05:41.121Z,13.20
2023-03-10T05:08:12.736Z,13.50
2023-03-10T05:10:44.404Z,18.10
2023-03-10T05:13:15.758Z,17.30
2023-03-10T05:15:54.383Z,18.60
2023-03-10T05:18:24.194Z,19.30
2023-03-10T05:20:54.932Z,26.10
2023-03-10T05:23:24.504Z,19.70
2023-03-10T05:25:53.639Z,15.40
2023-03-10T05:28:26.062Z,19.80
2023-03-10T05:30:54.814Z,25.10
2023-03-10T05:33:25.842Z,20.70
2023-03-10T05:35:53.526Z,18.40
2023-03-10T05:38:22.455Z,17.70
2023-03-10T05:40:50.087Z,13.80
2023-03-10T05:43:19.310Z,18.50
2023-03-10T05:45:57.832Z,18.90
2023-03-10T05:48:50.255Z,21.10
2023-03-10T05:51:34.322Z,15.60
2023-03-10T05:54:17.870Z,18.40
2023-03-10T05:56:47.333Z,15.40
2023-03-10T05:59:16.154Z,19.50
2023-03-10T06:02:31.735Z,15.60
2023-03-10T06:05:16.254Z,14.40
2023-03-10T06:07:45.046Z,15.30
2023-03-10T06:10:12.718Z,14.90
2023-03-10T06:12:44.175Z,16.00
2023-03-10T06:15:27.327Z,15.20
2023-03-10T06:17:55.863Z,14.00
2023-03-10T06:47:20.961Z,15.60
2023-03-10T07:00:12.348Z,15.10
2023-03-10T07:03:14.468Z,18.80
2023-03-10T07:09:24.415Z,16.20
2023-03-10T07:12:15.974Z,19.20
2023-03-10T07:15:31.974Z,18.70
2023-03-10T07:18:20.934Z,10.30
2023-03-10T07:41:43.233Z,6.30
2023-03-10T07:54:38.393Z,4.50
2023-03-10T08:00:47.179Z,7.30
2023-03-10T08:15:49.858Z,5.60
2023-03-10T08:18:31.100Z,4.60
2023-03-10T08:21:07.512Z,6.80
2023-03-10T08:30:43.669Z,8.30
2023-03-10T08:33:39.083Z,9.20
2023-03-10T08:37:03.709Z,9.70
2023-03-10T08:39:56.309Z,7.10
2023-03-10T08:42:23.841Z,7.40
2023-03-10T08:44:56.976Z,9.30
2023-03-10T08:50:49.119Z,7.60
2023-03-10T08:53:37.443Z,8.60
2023-03-10T08:56:57.357Z,7.70
2023-03-10T09:05:55.189Z,8.10
2023-03-10T09:14:42.700Z,7.50
2023-03-10T09:20:15.862Z,6.80
2023-03-10T09:23:14.878Z,7.90
2023-03-10T09:26:06.119Z,7.40
2023-03-10T09:32:12.060Z,6.70
2023-03-10T09:41:20.931Z,7.80
2023-03-10T09:54:42.018Z,5.80
2023-03-10T09:57:30.144Z,5.70
2023-03-10T10:01:03.756Z,6.30
2023-03-10T10:17:39.243Z,5.90
2023-03-10T10:21:54.772Z,5.70
2023-03-10T10:31:33.414Z,4.50
2023-03-10T10:35:02.606Z,4.70
2023-03-10T10:37:50.923Z,9.50
2023-03-10T10:40:24.667Z,6.10
2023-03-10T10:46:29.100Z,5.10
2023-03-10T10:56:05.940Z,4.80
2023-03-10T11:22:46.869Z,4.70
2023-03-10T11:30:30.675Z,6.00
2023-03-10T11:33:58.794Z,4.60
2023-03-10T11:36:55.908Z,5.70
2023-03-10T11:40:47.808Z,6.00
2023-03-10T11:50:30.411Z,4.90
2023-03-10T11:53:31.810Z,4.20
2023-03-10T11:59:27.505Z,3.90
2023-03-10T12:01:58.856Z,5.10
2023-03-10T12:04:33.332Z,5.80
2023-03-10T12:10:12.381Z,4.40
2023-03-10T12:12:58.858Z,8.90
2023-03-10T12:15:29.863Z,6.40
2023-03-10T12:18:02.337Z,5.40
2023-03-10T12:20:37.661Z,4.40
2023-03-10T12:23:36.407Z,6.10
2023-03-10T12:26:06.609Z,4.70
2023-03-10T12:42:41.481Z,11.20
2023-03-10T13:14:42.745Z,4.50
2023-03-10T13:18:15.503Z,4.30
2023-03-10T13:38:44.978Z,8.40
2023-03-10T13:45:13.422Z,9.10
2023-03-10T13:47:51.970Z,8.80
2023-03-10T13:50:43.892Z,8.60
2023-03-10T14:00:51.253Z,7.00
2023-03-10T14:24:11.556Z,10.40
2023-03-10T14:30:39.425Z,6.30
2023-03-10T14:37:03.148Z,7.60
2023-03-10T14:39:59.784Z,8.00
2023-03-10T14:43:08.908Z,6.10
2023-03-10T15:13:32.950Z,7.60
2023-03-10T15:16:36.993Z,6.30
2023-03-10T15:19:34.500Z,7.60
2023-03-10T15:22:04.071Z,8.50
2023-03-10T15:25:04.706Z,5.40
2023-03-10T15:27:35.141Z,6.70
2023-03-10T15:30:15.926Z,4.80
2023-03-10T15:33:04.550Z,8.50
2023-03-10T15:35:33.954Z,8.80
2023-03-10T15:38:03.504Z,7.50
